Terminal Aerodrome Forecast
Issued by NWS

Home | Current Version | Previous Version | Text Only | Print | Product List | Glossary On
Versions: 1 2 3 4 5 6 7 8 9 10 11 12
000
FTUS46 KMTR 141728
TAFMRY
TAF
KMRY 141728Z 1418/1518 VRB03KT P6SM SKC
     FM142000 31005KT P6SM SKC
     FM150300 09004KT P6SM SKC=

USA.gov is the U.S. government's official web portal to all federal, state and local government web resources and services.